WetterOnline ( https://www.wetteronline.ch )

Wetter aktuell Osterwieck

Aktuelles Wetter: Wernigerode (240m)

6-stündlich | Neueste Meldungen
Ortszeit Temperatur Wetter
Sa, 28.11. 19:00 0.9° C bedeckt
Sa, 28.11. 13:00 4.0° C bewölkt
Sa, 28.11. 7:00 2.5° C bedeckt
Sa, 28.11. 1:00 2.0° C fast wolkenlos
Fr, 27.11. 19:00 4.4° C Nebel
Fr, 27.11. 13:00 6.8° C bedeckt
Fr, 27.11. 7:00 5.5° C Nebel
Fr, 27.11. 1:00 6.0° C bedeckt
Ortszeit Temperatur Wetter
Sa, 28.11. 21:00 1.0° C bedeckt
Sa, 28.11. 20:50 1.0° C bedeckt
Sa, 28.11. 20:40 1.0° C bedeckt
Sa, 28.11. 20:30 0.9° C bedeckt
Sa, 28.11. 20:20 0.9° C bedeckt
Sa, 28.11. 20:10 0.8° C bedeckt
Sa, 28.11. 20:00 0.8° C bedeckt
Sa, 28.11. 19:30 0.8° C bedeckt
Sa, 28.11. 19:00 0.9° C bedeckt
Sa, 28.11. 18:30 1.2° C bedeckt
Sa, 28.11. 18:00 1.5° C bedeckt
Ortszeit Relative Feuchte Sichtweite
Sa, 28.11. 19:00 83% 23 km
Sa, 28.11. 13:00 82% 19 km
Sa, 28.11. 7:00 92% 17 km
Sa, 28.11. 1:00 97% 3.1 km
Fr, 27.11. 19:00 99% 0.2 km
Fr, 27.11. 13:00 99% 2.9 km
Fr, 27.11. 7:00 99% 0.4 km
Fr, 27.11. 1:00 92% 10 km
Ortszeit Relative Feuchte Sichtweite
Sa, 28.11. 21:00 79% 30 km
Sa, 28.11. 20:50 79% -
Sa, 28.11. 20:40 79% -
Sa, 28.11. 20:30 80% 28 km
Sa, 28.11. 20:20 80% -
Sa, 28.11. 20:10 80% -
Sa, 28.11. 20:00 81% 26 km
Sa, 28.11. 19:30 83% 25 km
Sa, 28.11. 19:00 83% 23 km
Sa, 28.11. 18:30 85% 15 km
Sa, 28.11. 18:00 85% 17 km
Ortszeit Niederschlagsmenge Niederschlagsart
Sa, 28.11. 19:00 0.1 l/m2 in 12 Std. -
Sa, 28.11. 13:00 0.1 l/m2 in 6 Std. Sprühregen
Sa, 28.11. 7:00 0.0 l/m2 in 12 Std. -
Sa, 28.11. 1:00 0.0 l/m2 in 6 Std. -
Fr, 27.11. 19:00 0.0 l/m2 in 12 Std. -
Fr, 27.11. 13:00 0.0 l/m2 in 6 Std. -
Fr, 27.11. 7:00 0.0 l/m2 in 12 Std. -
Fr, 27.11. 1:00 0.0 l/m2 in 6 Std. -
Ortszeit Niederschlagsmenge Niederschlagsart
Sa, 28.11. 21:00 0.0 l/m2 in 1 Std. -
Sa, 28.11. 20:50 keine Meldung -
Sa, 28.11. 20:40 keine Meldung -
Sa, 28.11. 20:30 0.0 l/m2 in 1 Std. -
Sa, 28.11. 20:20 keine Meldung -
Sa, 28.11. 20:10 keine Meldung -
Sa, 28.11. 20:00 0.0 l/m2 in 1 Std. -
Sa, 28.11. 19:30 0.0 l/m2 in 1 Std. -
Sa, 28.11. 19:00 0.0 l/m2 in 1 Std. -
Sa, 28.11. 18:30 0.0 l/m2 in 1 Std. -
Sa, 28.11. 18:00 0.0 l/m2 in 1 Std. -
Ortszeit Stärke Spitze Richtung
km/h Bft. km/h Grad Sektor
Sa, 28.11. 19:00 13 3 24 100° O
Sa, 28.11. 13:00 11 2 22 100° O
Sa, 28.11. 7:00 7 2 22 160° S
Sa, 28.11. 1:00 6 1 22 320° NW
Fr, 27.11. 19:00 14 3 25 80° O
Fr, 27.11. 13:00 4 1 14 100° O
Fr, 27.11. 7:00 0 0 11 - -
Fr, 27.11. 1:00 4 1 7 20° N
Ortszeit Stärke Spitze Richtung
km/h Bft. km/h Grad Sektor
Sa, 28.11. 21:00 11 2 18 120° SO
Sa, 28.11. 20:50 11 2 - 120° SO
Sa, 28.11. 20:40 9 2 - 110° O
Sa, 28.11. 20:30 9 2 19 120° SO
Sa, 28.11. 20:20 9 2 - 120° SO
Sa, 28.11. 20:10 11 2 - 110° O
Sa, 28.11. 20:00 11 2 22 120° SO
Sa, 28.11. 19:30 11 2 22 120° SO
Sa, 28.11. 19:00 13 3 22 100° O
Sa, 28.11. 18:30 11 2 22 100° O
Sa, 28.11. 18:00 11 2 25 100° O
Ortszeit Untergrenze Bedeckung Gattung
total tief tief mittel hoch
Sa, 28.11. 19:00 270 m 8/8 8/8 - - -
Sa, 28.11. 13:00 450 m 7/8 7/8 - - -
Sa, 28.11. 7:00 180 m 8/8 8/8 - - -
Sa, 28.11. 1:00 150 m 1/8 1/8 - - -
Fr, 27.11. 19:00 <30 m 8/8 0/8 - - -
Fr, 27.11. 13:00 30 m 8/8 8/8 - - -
Fr, 27.11. 7:00 30 m 8/8 8/8 - - -
Fr, 27.11. 1:00 270 m 8/8 8/8 - - -
Ortszeit Bedeckungsgrad in Achtel und Wolkenuntergrenze
Sa, 28.11. 21:00 8(420m)
Sa, 28.11. 20:50 8(420m)
Sa, 28.11. 20:40 8(390m)
Sa, 28.11. 20:30 8(390m)
Sa, 28.11. 20:20 8(390m)
Sa, 28.11. 20:10 8(390m)
Sa, 28.11. 20:00 8(360m)
Sa, 28.11. 19:30 8(300m)
Sa, 28.11. 19:00 8(270m)
Sa, 28.11. 18:30 8(270m)
Sa, 28.11. 18:00 8(270m)
Ortszeit Luftdruck NN (hPa) Tendenz (hPa in 3 Std.)
Sa, 28.11. 19:00 1027 + 1,5
Sa, 28.11. 13:00 1024 + 0,1
Sa, 28.11. 7:00 1023 + 0,5
Sa, 28.11. 1:00 1023 + 0,1
Fr, 27.11. 19:00 1022 + 1,0
Fr, 27.11. 13:00 1021 - 0,4
Fr, 27.11. 7:00 1021 - 0,1
Fr, 27.11. 1:00 1022 0,0
Ortszeit Luftdruck NN (hPa) Tendenz (hPa in 3 Std.)
Sa, 28.11. 21:00 1027 + 0,9
Sa, 28.11. 20:50 1027 keine Meldung
Sa, 28.11. 20:40 1027 keine Meldung
Sa, 28.11. 20:30 1027 + 1,1
Sa, 28.11. 20:20 1027 keine Meldung
Sa, 28.11. 20:10 1027 keine Meldung
Sa, 28.11. 20:00 1027 + 1,2
Sa, 28.11. 19:30 1027 + 1,4
Sa, 28.11. 19:00 1027 + 1,5
Sa, 28.11. 18:30 1026 + 1,7
Sa, 28.11. 18:00 1026 + 1,6
Ortszeit Schneehöhe (cm)
Sa, 28.11. 19:00 0
Sa, 28.11. 13:00 0
Sa, 28.11. 7:00 0
Sa, 28.11. 1:00 0
Fr, 27.11. 19:00 0
Fr, 27.11. 13:00 0
Fr, 27.11. 7:00 0
Fr, 27.11. 1:00 0
Ortszeit Schneehöhe (cm)
Sa, 28.11. 21:00 0
Sa, 28.11. 20:50 0
Sa, 28.11. 20:40 0
Sa, 28.11. 20:30 0
Sa, 28.11. 20:20 0
Sa, 28.11. 20:10 0
Sa, 28.11. 20:00 0
Sa, 28.11. 19:30 0
Sa, 28.11. 19:00 0
Sa, 28.11. 18:30 0
Sa, 28.11. 18:00 0
Link zu dieser Seite / Seite empfehlen

Das Wetter in ...